Time;durP1;ratioP1;P1;durP2;ratioP2;P2;SDS_P1;SDS_P2;PMS_P1;PMS_P2;Temp;Humidity;BMP_temperature;BMP_pressure;BME280_temperature;BME280_humidity;BME280_pressure;Samples;Min_cycle;Max_cycle;Signal;HPM_P1;HPM_P2
2022/08/02 00:01:43;;;;;;;2.22;2.03;;;;;;;;;;5009095;28;20022;-69
2022/08/02 00:04:09;;;;;;;2.42;2.22;;;;;;;;;;5008269;28;20026;-69
2022/08/02 00:06:36;;;;;;;2.65;2.10;;;;;;;;;;5012975;28;20037;-67
2022/08/02 00:09:03;;;;;;;2.33;2.08;;;;;;;;;;5011587;28;20018;-68
2022/08/02 00:11:29;;;;;;;2.75;2.00;;;;;;;;;;5003767;28;20489;-70
2022/08/02 00:13:55;;;;;;;2.90;2.13;;;;;;;;;;5004116;28;20476;-68
2022/08/02 00:16:21;;;;;;;2.65;2.10;;;;;;;;;;5008383;28;20060;-70
2022/08/02 00:18:47;;;;;;;4.97;1.90;;;;;;;;;;5006727;28;20030;-68
2022/08/02 00:21:13;;;;;;;2.75;2.00;;;;;;;;;;5011062;28;20021;-71
2022/08/02 00:23:40;;;;;;;3.65;2.17;;;;;;;;;;4998620;28;20026;-68
2022/08/02 00:26:06;;;;;;;2.10;1.90;;;;;;;;;;5006136;28;20033;-68
2022/08/02 00:28:32;;;;;;;2.05;1.88;;;;;;;;;;5004481;28;20149;-69
2022/08/02 00:30:58;;;;;;;2.17;1.98;;;;;;;;;;5007043;28;20088;-70
2022/08/02 00:33:25;;;;;;;2.05;1.85;;;;;;;;;;5006003;28;20017;-67
2022/08/02 00:35:51;;;;;;;2.15;1.95;;;;;;;;;;5005354;28;20265;-68
2022/08/02 00:38:17;;;;;;;2.10;1.90;;;;;;;;;;5009266;28;20032;-68
2022/08/02 00:40:47;;;;;;;3.03;1.95;;;;;;;;;;5011821;28;20038;-71
2022/08/02 00:43:13;;;;;;;3.13;1.95;;;;;;;;;;5007667;28;20022;-68
2022/08/02 00:45:40;;;;;;;2.25;1.90;;;;;;;;;;5007040;28;20391;-68
2022/08/02 00:48:07;;;;;;;2.97;1.75;;;;;;;;;;5008804;28;20033;-69
2022/08/02 00:50:34;;;;;;;4.53;2.33;;;;;;;;;;5002686;28;20393;-68
2022/08/02 00:53:00;;;;;;;1.92;1.73;;;;;;;;;;5003886;28;20441;-68
2022/08/02 00:55:27;;;;;;;2.30;2.00;;;;;;;;;;5007411;28;20026;-68
2022/08/02 00:57:53;;;;;;;2.50;2.10;;;;;;;;;;5006634;28;20040;-71
2022/08/02 01:00:19;;;;;;;7.35;2.20;;;;;;;;;;5006511;28;20043;-69
2022/08/02 01:02:46;;;;;;;2.65;1.98;;;;;;;;;;5006810;28;20581;-68
2022/08/02 01:05:12;;;;;;;2.85;1.95;;;;;;;;;;5000773;28;20048;-69
2022/08/02 01:07:38;;;;;;;2.95;2.30;;;;;;;;;;5009881;28;20033;-69
2022/08/02 01:10:05;;;;;;;3.25;2.50;;;;;;;;;;5009359;28;20236;-70
2022/08/02 01:12:31;;;;;;;3.10;2.28;;;;;;;;;;5005048;28;20485;-68
2022/08/02 01:15:03;;;;;;;2.15;1.80;;;;;;;;;;5007968;28;20033;-68
2022/08/02 01:17:35;;;;;;;2.72;2.05;;;;;;;;;;5009175;28;20370;-68
2022/08/02 01:20:20;;;;;;;2.63;2.30;;;;;;;;;;5008641;28;20038;-68
2022/08/02 01:22:47;;;;;;;3.20;2.17;;;;;;;;;;5008860;28;20367;-70
2022/08/02 01:25:28;;;;;;;2.92;2.22;;;;;;;;;;5010721;28;20018;-68
2022/08/02 01:28:13;;;;;;;3.00;2.45;;;;;;;;;;5009420;28;20058;-68
2022/08/02 01:30:41;;;;;;;2.25;2.00;;;;;;;;;;5008715;28;20107;-70
2022/08/02 01:33:08;;;;;;;3.10;2.50;;;;;;;;;;5008294;28;20018;-69
2022/08/02 01:35:37;;;;;;;2.85;2.10;;;;;;;;;;5009426;28;20025;-68
2022/08/02 01:38:06;;;;;;;2.70;2.22;;;;;;;;;;5012706;28;20022;-69
2022/08/02 01:40:34;;;;;;;2.17;1.83;;;;;;;;;;5010693;28;20031;-68
2022/08/02 01:43:01;;;;;;;3.10;2.17;;;;;;;;;;5007359;28;20029;-69
2022/08/02 01:45:30;;;;;;;7.20;2.13;;;;;;;;;;5012098;28;20325;-71
2022/08/02 01:47:56;;;;;;;3.10;2.20;;;;;;;;;;5008724;28;20021;-69
2022/08/02 01:50:27;;;;;;;3.38;2.10;;;;;;;;;;5007789;28;20482;-69
2022/08/02 01:52:56;;;;;;;2.65;2.30;;;;;;;;;;5008740;28;20022;-68
2022/08/02 01:55:24;;;;;;;3.60;2.33;;;;;;;;;;5006421;28;20015;-70
2022/08/02 01:57:53;;;;;;;2.50;1.90;;;;;;;;;;5003738;28;20044;-70
2022/08/02 02:00:20;;;;;;;3.70;2.45;;;;;;;;;;5010155;28;20025;-68
2022/08/02 02:02:47;;;;;;;4.10;2.30;;;;;;;;;;5004003;28;20091;-69
2022/08/02 02:05:15;;;;;;;2.63;2.30;;;;;;;;;;5009883;28;20022;-68
2022/08/02 02:07:43;;;;;;;2.67;2.25;;;;;;;;;;5004683;28;20453;-68
2022/08/02 02:10:11;;;;;;;6.63;2.47;;;;;;;;;;5006772;28;20359;-69
2022/08/02 02:12:39;;;;;;;4.03;2.20;;;;;;;;;;5009076;28;20121;-68
2022/08/02 02:15:06;;;;;;;2.53;2.00;;;;;;;;;;5006150;28;20508;-68
2022/08/02 02:17:33;;;;;;;4.85;2.70;;;;;;;;;;5004542;28;20037;-69
2022/08/02 02:20:00;;;;;;;3.78;2.30;;;;;;;;;;5010379;28;20371;-69
2022/08/02 02:22:26;;;;;;;6.85;2.50;;;;;;;;;;5003145;28;20037;-68
2022/08/02 02:24:52;;;;;;;3.42;2.65;;;;;;;;;;5008411;28;20026;-69
2022/08/02 02:27:21;;;;;;;4.63;2.63;;;;;;;;;;5007226;28;20116;-68
2022/08/02 02:29:49;;;;;;;2.92;2.50;;;;;;;;;;5010957;28;20025;-68
2022/08/02 02:32:16;;;;;;;2.90;2.60;;;;;;;;;;5006687;28;20169;-68
2022/08/02 02:34:44;;;;;;;3.28;2.70;;;;;;;;;;5010952;28;20026;-68
2022/08/02 02:37:18;;;;;;;4.50;2.60;;;;;;;;;;5012771;28;20033;-68
2022/08/02 02:39:45;;;;;;;3.50;2.65;;;;;;;;;;5005771;28;20018;-68
2022/08/02 02:42:13;;;;;;;3.17;2.88;;;;;;;;;;5010808;28;20421;-68
2022/08/02 02:44:40;;;;;;;2.85;2.45;;;;;;;;;;5013133;28;20423;-68
2022/08/02 02:47:06;;;;;;;3.42;2.60;;;;;;;;;;5008719;28;20037;-68
2022/08/02 02:49:34;;;;;;;3.38;2.80;;;;;;;;;;5008923;28;20478;-70
2022/08/02 02:52:01;;;;;;;3.75;3.08;;;;;;;;;;5006493;28;20033;-69
2022/08/02 02:54:28;;;;;;;3.38;3.08;;;;;;;;;;5007558;28;20028;-68
2022/08/02 02:56:54;;;;;;;3.75;2.92;;;;;;;;;;5002654;28;20277;-70
2022/08/02 02:59:20;;;;;;;6.88;3.30;;;;;;;;;;5008371;28;20152;-70
2022/08/02 03:01:46;;;;;;;3.35;2.95;;;;;;;;;;5004377;28;20486;-69
2022/08/02 03:04:13;;;;;;;3.38;2.95;;;;;;;;;;5008090;28;20540;-68
2022/08/02 03:06:40;;;;;;;4.10;2.90;;;;;;;;;;4999734;28;20085;-69
2022/08/02 03:09:06;;;;;;;4.80;3.10;;;;;;;;;;5013495;28;20049;-69
2022/08/02 03:11:33;;;;;;;4.35;2.90;;;;;;;;;;5008558;28;20172;-69
2022/08/02 03:14:00;;;;;;;3.22;2.78;;;;;;;;;;5008095;28;20033;-68
2022/08/02 03:16:29;;;;;;;4.00;2.92;;;;;;;;;;5005907;28;20035;-69
2022/08/02 03:18:57;;;;;;;3.13;2.70;;;;;;;;;;5005629;28;20057;-68
2022/08/02 03:21:23;;;;;;;3.88;2.60;;;;;;;;;;5009822;28;20508;-69
2022/08/02 03:23:49;;;;;;;3.20;2.60;;;;;;;;;;5009035;28;20068;-68
2022/08/02 03:26:16;;;;;;;5.38;2.72;;;;;;;;;;5007313;28;20029;-69
2022/08/02 03:28:45;;;;;;;2.80;2.58;;;;;;;;;;5012138;28;20083;-68
2022/08/02 03:31:11;;;;;;;3.97;3.42;;;;;;;;;;5011751;28;20030;-68
2022/08/02 03:33:38;;;;;;;4.75;3.08;;;;;;;;;;5013752;28;20026;-68
2022/08/02 03:36:07;;;;;;;3.83;2.80;;;;;;;;;;5006525;28;20041;-68
2022/08/02 03:38:34;;;;;;;4.10;3.03;;;;;;;;;;5011271;28;20030;-69
2022/08/02 03:41:02;;;;;;;3.40;3.10;;;;;;;;;;5005431;28;20037;-67
2022/08/02 03:43:28;;;;;;;3.00;2.80;;;;;;;;;;5008583;28;20437;-68
2022/08/02 03:45:55;;;;;;;4.18;3.10;;;;;;;;;;5005707;28;20367;-68
2022/08/02 03:48:22;;;;;;;3.97;3.20;;;;;;;;;;5004489;28;20513;-69
2022/08/02 03:50:48;;;;;;;4.75;3.00;;;;;;;;;;5009001;28;20076;-68
2022/08/02 03:53:15;;;;;;;3.53;3.00;;;;;;;;;;5011037;28;20026;-68
2022/08/02 03:55:41;;;;;;;7.80;3.60;;;;;;;;;;5009495;28;20477;-69
2022/08/02 03:58:08;;;;;;;4.05;3.10;;;;;;;;;;5005206;28;20485;-68
2022/08/02 04:00:34;;;;;;;4.47;2.90;;;;;;;;;;5005037;28;20033;-69
2022/08/02 04:03:00;;;;;;;3.83;3.22;;;;;;;;;;4998892;28;20489;-69
2022/08/02 04:05:26;;;;;;;3.20;2.90;;;;;;;;;;5001625;28;20053;-69
2022/08/02 04:07:53;;;;;;;6.20;3.30;;;;;;;;;;4998104;28;20609;-71
2022/08/02 04:10:19;;;;;;;4.50;3.22;;;;;;;;;;5000508;28;20034;-68
2022/08/02 04:12:45;;;;;;;3.85;2.97;;;;;;;;;;4998683;28;20544;-71
2022/08/02 04:15:12;;;;;;;5.53;3.30;;;;;;;;;;4999490;28;20060;-68
2022/08/02 04:17:41;;;;;;;3.67;3.38;;;;;;;;;;4996518;28;20026;-67
2022/08/02 04:20:12;;;;;;;3.08;2.70;;;;;;;;;;5001753;28;20034;-68
2022/08/02 04:22:47;;;;;;;3.55;2.88;;;;;;;;;;5000494;28;20785;-68
2022/08/02 04:25:13;;;;;;;3.50;3.20;;;;;;;;;;4999197;28;20129;-68
2022/08/02 04:27:40;;;;;;;5.38;3.13;;;;;;;;;;5005934;28;20049;-68
2022/08/02 04:30:07;;;;;;;5.32;3.60;;;;;;;;;;5000955;28;20293;-68
2022/08/02 04:32:33;;;;;;;3.85;3.42;;;;;;;;;;5002667;28;20036;-68
2022/08/02 04:34:59;;;;;;;8.88;3.95;;;;;;;;;;5001771;28;20435;-67
2022/08/02 04:37:26;;;;;;;11.20;7.38;;;;;;;;;;5004229;28;20185;-68
2022/08/02 04:39:52;;;;;;;12.45;9.88;;;;;;;;;;5000198;28;20052;-68
2022/08/02 04:42:22;;;;;;;21.95;16.70;;;;;;;;;;5009661;28;20080;-68
2022/08/02 04:44:48;;;;;;;16.35;12.43;;;;;;;;;;5001660;28;20036;-68
2022/08/02 04:47:14;;;;;;;8.45;6.82;;;;;;;;;;5001132;28;20030;-68
2022/08/02 04:49:41;;;;;;;8.52;5.93;;;;;;;;;;5000132;28;20033;-68
2022/08/02 04:52:07;;;;;;;11.80;7.28;;;;;;;;;;5004705;28;20029;-68
2022/08/02 04:54:33;;;;;;;25.98;14.18;;;;;;;;;;5008212;28;20075;-68
2022/08/02 04:56:59;;;;;;;31.88;18.75;;;;;;;;;;5003638;28;20060;-67
2022/08/02 04:59:26;;;;;;;28.88;15.75;;;;;;;;;;5003132;28;20024;-68
2022/08/02 05:01:52;;;;;;;20.02;12.95;;;;;;;;;;4999510;28;20627;-67
2022/08/02 05:04:18;;;;;;;20.42;10.20;;;;;;;;;;5003966;28;20033;-68
2022/08/02 05:06:44;;;;;;;11.77;8.45;;;;;;;;;;4989797;28;20022;-67
2022/08/02 05:09:10;;;;;;;13.15;7.63;;;;;;;;;;5000865;28;20018;-67
2022/08/02 05:11:36;;;;;;;8.88;7.05;;;;;;;;;;5001558;28;20026;-68
2022/08/02 05:14:04;;;;;;;7.72;6.45;;;;;;;;;;5004740;28;20096;-67
2022/08/02 05:16:30;;;;;;;11.32;7.53;;;;;;;;;;5009246;28;20179;-69
2022/08/02 05:18:56;;;;;;;11.48;8.23;;;;;;;;;;5005976;28;20109;-67
2022/08/02 05:21:22;;;;;;;9.88;7.90;;;;;;;;;;5001519;28;20040;-67
2022/08/02 05:23:48;;;;;;;12.40;8.43;;;;;;;;;;5005244;28;20160;-68
2022/08/02 05:26:14;;;;;;;11.05;7.75;;;;;;;;;;5011244;28;20067;-69
2022/08/02 05:28:40;;;;;;;11.73;7.78;;;;;;;;;;5002608;28;20512;-67
2022/08/02 05:31:06;;;;;;;8.45;6.85;;;;;;;;;;5008572;28;20088;-67
2022/08/02 05:33:32;;;;;;;8.73;6.20;;;;;;;;;;5005732;28;20095;-68
2022/08/02 05:35:59;;;;;;;10.00;5.72;;;;;;;;;;5007805;28;20095;-67
2022/08/02 05:38:27;;;;;;;7.05;4.90;;;;;;;;;;5006956;28;20026;-67
2022/08/02 05:40:53;;;;;;;7.50;4.50;;;;;;;;;;5005876;28;20128;-67
2022/08/02 05:43:20;;;;;;;5.53;3.80;;;;;;;;;;5005725;28;20096;-67
2022/08/02 05:45:46;;;;;;;5.88;3.78;;;;;;;;;;5005348;28;20349;-67
2022/08/02 05:48:12;;;;;;;5.75;3.70;;;;;;;;;;5007565;28;20036;-67
2022/08/02 05:50:39;;;;;;;5.60;3.50;;;;;;;;;;5008825;28;20478;-67
2022/08/02 05:53:31;;;;;;;4.80;3.13;;;;;;;;;;5005420;28;20096;-68
2022/08/02 05:56:05;;;;;;;3.50;2.88;;;;;;;;;;4982301;28;20052;-67
2022/08/02 05:58:40;;;;;;;4.07;2.60;;;;;;;;;;5001200;28;20494;-68
2022/08/02 06:01:09;;;;;;;3.25;2.53;;;;;;;;;;5003305;28;20025;-68
2022/08/02 06:03:40;;;;;;;5.85;2.80;;;;;;;;;;5001545;28;20040;-70
2022/08/02 06:06:06;;;;;;;;;;;;;;;;;;5001327;28;20130;-67
2022/08/02 06:08:35;;;;;;;8.07;2.63;;;;;;;;;;4999207;28;20023;-67
2022/08/02 06:11:02;;;;;;;4.95;2.60;;;;;;;;;;5005897;28;20029;-67
2022/08/02 06:13:28;;;;;;;6.68;2.92;;;;;;;;;;5004613;28;20017;-67
2022/08/02 06:15:58;;;;;;;4.00;2.50;;;;;;;;;;4998916;28;20448;-68
2022/08/02 06:18:25;;;;;;;3.75;2.42;;;;;;;;;;4997313;28;20026;-67
2022/08/02 06:20:51;;;;;;;3.70;2.60;;;;;;;;;;4997000;28;20493;-68
2022/08/02 06:23:19;;;;;;;3.88;2.67;;;;;;;;;;4989648;28;20242;-67
2022/08/02 06:25:46;;;;;;;3.15;2.30;;;;;;;;;;4995754;28;20037;-67
2022/08/02 06:28:13;;;;;;;3.70;2.85;;;;;;;;;;4992090;28;20107;-67
2022/08/02 06:30:39;;;;;;;4.43;2.58;;;;;;;;;;4993948;28;20101;-68
2022/08/02 06:33:06;;;;;;;3.05;2.70;;;;;;;;;;4988597;28;20034;-68
2022/08/02 06:35:34;;;;;;;3.70;2.63;;;;;;;;;;4988827;28;20030;-68
2022/08/02 06:38:01;;;;;;;3.20;2.72;;;;;;;;;;4989222;28;20045;-69
2022/08/02 06:40:42;;;;;;;5.53;2.72;;;;;;;;;;4995368;28;20021;-68
2022/08/02 06:43:12;;;;;;;3.03;2.50;;;;;;;;;;4995570;28;20030;-71
2022/08/02 06:45:39;;;;;;;3.80;2.58;;;;;;;;;;5007148;28;20088;-68
2022/08/02 06:48:06;;;;;;;2.63;2.40;;;;;;;;;;5000616;28;20021;-68
2022/08/02 06:50:32;;;;;;;4.07;2.85;;;;;;;;;;4999552;28;20044;-67
2022/08/02 06:52:59;;;;;;;4.60;2.60;;;;;;;;;;4996163;28;20036;-68
2022/08/02 06:55:27;;;;;;;4.13;3.03;;;;;;;;;;4997898;28;20038;-68
2022/08/02 06:57:53;;;;;;;6.07;2.88;;;;;;;;;;4999706;28;20029;-67
2022/08/02 07:00:19;;;;;;;4.70;2.80;;;;;;;;;;5000675;28;20032;-68
2022/08/02 07:02:45;;;;;;;3.88;2.60;;;;;;;;;;4999962;28;20018;-68
2022/08/02 07:05:12;;;;;;;6.13;4.03;;;;;;;;;;4990914;28;20025;-68
2022/08/02 07:07:38;;;;;;;7.93;3.88;;;;;;;;;;4995406;28;20025;-67
2022/08/02 07:10:04;;;;;;;3.15;2.80;;;;;;;;;;4993396;28;20037;-68
2022/08/02 07:12:31;;;;;;;4.57;3.03;;;;;;;;;;4997469;28;20030;-67
2022/08/02 07:15:01;;;;;;;5.03;3.00;;;;;;;;;;5001724;28;20599;-68
2022/08/02 07:17:28;;;;;;;4.45;2.88;;;;;;;;;;5000818;28;20508;-67
2022/08/02 07:19:54;;;;;;;4.13;3.00;;;;;;;;;;4990393;28;20025;-68
2022/08/02 07:22:22;;;;;;;5.25;2.85;;;;;;;;;;4994400;28;20056;-67
2022/08/02 07:24:48;;;;;;;4.15;3.20;;;;;;;;;;4995102;28;20025;-67
2022/08/02 07:27:15;;;;;;;3.80;3.20;;;;;;;;;;4997294;28;20187;-67
2022/08/02 07:29:41;;;;;;;5.47;3.30;;;;;;;;;;4994928;28;20375;-68
2022/08/02 07:32:07;;;;;;;4.20;3.40;;;;;;;;;;4996124;28;20356;-67
2022/08/02 07:34:33;;;;;;;3.20;2.90;;;;;;;;;;5003929;28;20097;-67
2022/08/02 07:37:00;;;;;;;3.85;2.75;;;;;;;;;;5001923;28;20045;-68
2022/08/02 07:39:26;;;;;;;3.35;3.00;;;;;;;;;;4994411;28;20021;-67
2022/08/02 07:41:52;;;;;;;3.15;2.85;;;;;;;;;;5005356;28;20240;-67
2022/08/02 07:44:20;;;;;;;4.43;3.10;;;;;;;;;;5007289;28;20021;-68
2022/08/02 07:46:47;;;;;;;3.92;2.97;;;;;;;;;;5006619;28;20033;-67
2022/08/02 07:49:17;;;;;;;6.60;3.20;;;;;;;;;;5007860;28;20033;-67
2022/08/02 07:51:44;;;;;;;8.18;3.72;;;;;;;;;;5006262;28;20113;-67
2022/08/02 07:54:10;;;;;;;6.15;3.03;;;;;;;;;;5003287;28;20113;-68
2022/08/02 07:56:36;;;;;;;3.75;3.10;;;;;;;;;;5000770;28;20406;-68
2022/08/02 07:59:03;;;;;;;5.07;2.70;;;;;;;;;;5001334;28;20026;-67
2022/08/02 08:01:29;;;;;;;3.60;2.85;;;;;;;;;;5004620;28;20033;-68
2022/08/02 08:03:55;;;;;;;4.07;3.00;;;;;;;;;;4994474;28;20034;-67
2022/08/02 08:06:21;;;;;;;4.32;2.80;;;;;;;;;;4998260;28;20410;-67
2022/08/02 08:08:48;;;;;;;4.95;2.83;;;;;;;;;;4991577;28;20041;-67
2022/08/02 08:11:14;;;;;;;4.68;3.15;;;;;;;;;;4997279;28;20112;-67
2022/08/02 08:13:40;;;;;;;5.15;3.33;;;;;;;;;;4994433;28;20033;-68
2022/08/02 08:16:06;;;;;;;6.10;2.88;;;;;;;;;;4999497;28;20037;-67
2022/08/02 08:18:32;;;;;;;7.65;2.88;;;;;;;;;;4997603;28;20026;-68
2022/08/02 08:20:59;;;;;;;6.25;3.10;;;;;;;;;;4997537;28;20161;-71
2022/08/02 08:23:25;;;;;;;6.53;3.00;;;;;;;;;;4993148;28;20698;-73
2022/08/02 08:25:51;;;;;;;6.82;3.00;;;;;;;;;;5002228;28;20041;-78
2022/08/02 08:28:18;;;;;;;5.07;2.95;;;;;;;;;;4998192;28;20552;-73
2022/08/02 08:30:44;;;;;;;3.03;2.72;;;;;;;;;;4995286;28;20029;-81
2022/08/02 08:33:10;;;;;;;6.63;3.22;;;;;;;;;;4991640;28;20034;-82
2022/08/02 08:35:36;;;;;;;5.13;3.08;;;;;;;;;;5000135;28;20026;-76
2022/08/02 08:38:02;;;;;;;3.50;2.70;;;;;;;;;;4994407;28;20039;-78
2022/08/02 08:40:28;;;;;;;4.13;2.88;;;;;;;;;;5002276;28;20101;-84
2022/08/02 08:42:55;;;;;;;3.97;2.70;;;;;;;;;;4997920;28;20331;-77
2022/08/02 08:45:21;;;;;;;4.70;3.05;;;;;;;;;;4999937;28;20030;-73
2022/08/02 08:47:51;;;;;;;4.68;2.80;;;;;;;;;;5001794;28;20176;-72
2022/08/02 08:50:19;;;;;;;4.45;2.63;;;;;;;;;;5001384;28;20022;-77
2022/08/02 08:52:49;;;;;;;5.90;2.92;;;;;;;;;;5007590;28;20057;-77
2022/08/02 08:55:15;;;;;;;4.25;2.65;;;;;;;;;;5000365;28;20026;-71
2022/08/02 08:57:42;;;;;;;3.42;2.55;;;;;;;;;;5003069;28;20058;-68
2022/08/02 09:00:12;;;;;;;4.03;2.85;;;;;;;;;;5004055;28;20049;-72
2022/08/02 09:02:41;;;;;;;3.72;2.53;;;;;;;;;;5007899;28;20149;-73
2022/08/02 09:05:10;;;;;;;3.15;2.53;;;;;;;;;;5000082;28;20022;-75
2022/08/02 09:07:36;;;;;;;6.30;2.70;;;;;;;;;;5006191;28;20077;-72
2022/08/02 09:10:22;;;;;;;7.75;2.88;;;;;;;;;;4999171;28;20104;-72
2022/08/02 09:13:05;;;;;;;4.03;2.45;;;;;;;;;;4994671;28;20026;-72
2022/08/02 09:15:31;;;;;;;4.88;2.85;;;;;;;;;;4986857;28;20124;-72
2022/08/02 09:17:57;;;;;;;4.30;2.58;;;;;;;;;;5003922;28;20042;-72
2022/08/02 09:20:23;;;;;;;4.07;2.53;;;;;;;;;;4994023;28;20022;-71
2022/08/02 09:23:17;;;;;;;7.03;2.92;;;;;;;;;;4994835;28;20029;-71
2022/08/02 09:25:54;;;;;;;3.88;2.70;;;;;;;;;;4993888;28;20069;-72
2022/08/02 09:28:20;;;;;;;3.72;2.72;;;;;;;;;;5005191;28;20137;-72
2022/08/02 09:30:46;;;;;;;5.85;2.33;;;;;;;;;;4999716;28;20527;-73
2022/08/02 09:33:16;;;;;;;2.90;2.60;;;;;;;;;;4995765;28;20029;-72
2022/08/02 09:35:42;;;;;;;5.93;2.80;;;;;;;;;;5008139;28;20029;-71
2022/08/02 09:38:12;;;;;;;4.82;2.90;;;;;;;;;;5005085;28;20528;-72
2022/08/02 09:40:39;;;;;;;5.05;3.00;;;;;;;;;;5010109;28;20037;-71
2022/08/02 09:43:06;;;;;;;4.82;2.95;;;;;;;;;;5003514;28;20485;-71
2022/08/02 09:45:33;;;;;;;3.58;2.75;;;;;;;;;;5008267;28;20105;-72
2022/08/02 09:48:00;;;;;;;3.53;2.53;;;;;;;;;;5006872;28;20050;-72
2022/08/02 09:50:27;;;;;;;5.03;3.00;;;;;;;;;;5002060;28;20049;-72
2022/08/02 09:52:55;;;;;;;6.00;3.13;;;;;;;;;;5003296;28;20778;-72
2022/08/02 09:55:21;;;;;;;5.65;2.72;;;;;;;;;;5003025;28;20041;-73
2022/08/02 09:57:48;;;;;;;2.63;2.30;;;;;;;;;;5003465;28;20041;-72
2022/08/02 10:00:14;;;;;;;4.35;2.90;;;;;;;;;;4999777;28;20065;-72
2022/08/02 10:03:00;;;;;;;3.40;2.58;;;;;;;;;;5002642;28;20386;-73
2022/08/02 10:05:29;;;;;;;4.13;2.58;;;;;;;;;;5001412;28;20022;-73
2022/08/02 10:07:57;;;;;;;4.30;3.00;;;;;;;;;;5003977;28;20088;-73
2022/08/02 10:10:23;;;;;;;5.88;2.83;;;;;;;;;;4999331;28;20026;-72
2022/08/02 10:12:49;;;;;;;3.97;3.15;;;;;;;;;;5001198;28;20040;-72
2022/08/02 10:15:17;;;;;;;6.10;3.50;;;;;;;;;;4996583;28;20029;-73
2022/08/02 10:17:43;;;;;;;4.22;3.08;;;;;;;;;;5005855;28;20022;-73
2022/08/02 10:20:09;;;;;;;4.75;2.92;;;;;;;;;;5004334;28;20033;-73
2022/08/02 10:22:37;;;;;;;4.88;2.85;;;;;;;;;;5001471;28;20034;-72
2022/08/02 10:25:04;;;;;;;5.80;3.10;;;;;;;;;;5004461;28;20393;-73
2022/08/02 10:27:31;;;;;;;11.02;3.40;;;;;;;;;;5003496;28;20041;-72
2022/08/02 10:29:59;;;;;;;5.10;3.30;;;;;;;;;;5009586;28;20025;-74
2022/08/02 10:32:26;;;;;;;5.10;2.70;;;;;;;;;;5017351;28;20469;-72
2022/08/02 10:34:58;;;;;;;3.90;2.58;;;;;;;;;;5010596;28;20034;-73
2022/08/02 10:37:28;;;;;;;7.72;3.67;;;;;;;;;;5008826;28;20033;-74
2022/08/02 10:39:55;;;;;;;4.40;2.78;;;;;;;;;;5005348;28;20117;-74
2022/08/02 10:42:43;;;;;;;7.65;3.55;;;;;;;;;;5005481;28;20028;-75
2022/08/02 10:45:09;;;;;;;5.28;3.10;;;;;;;;;;5001273;28;20064;-73
2022/08/02 10:47:36;;;;;;;5.68;3.15;;;;;;;;;;5002535;28;20080;-73
2022/08/02 10:50:02;;;;;;;7.47;3.60;;;;;;;;;;5001993;28;20018;-73
2022/08/02 10:52:31;;;;;;;7.13;3.80;;;;;;;;;;5002744;28;20084;-73
2022/08/02 10:55:03;;;;;;;7.20;3.58;;;;;;;;;;5003711;28;20539;-73
2022/08/02 10:57:34;;;;;;;5.50;3.15;;;;;;;;;;5003808;28;20403;-72
2022/08/02 11:00:00;;;;;;;7.28;3.30;;;;;;;;;;5009948;28;20116;-73
2022/08/02 11:02:52;;;;;;;6.90;3.50;;;;;;;;;;5007216;28;20357;-72
2022/08/02 11:05:32;;;;;;;4.88;3.20;;;;;;;;;;5005145;28;20229;-72
2022/08/02 11:07:58;;;;;;;4.30;2.90;;;;;;;;;;5009034;28;20358;-72
2022/08/02 11:10:24;;;;;;;7.68;3.00;;;;;;;;;;5009445;28;20097;-73
2022/08/02 11:13:04;;;;;;;4.30;2.95;;;;;;;;;;5009645;28;20030;-73
2022/08/02 11:15:46;;;;;;;3.72;2.88;;;;;;;;;;5009690;28;20108;-74
2022/08/02 11:18:12;;;;;;;3.40;2.58;;;;;;;;;;5005995;28;20033;-73
2022/08/02 11:20:38;;;;;;;4.95;2.90;;;;;;;;;;5009427;28;20721;-73
2022/08/02 11:23:28;;;;;;;4.25;2.80;;;;;;;;;;5004551;28;20034;-73
2022/08/02 11:25:54;;;;;;;6.70;3.03;;;;;;;;;;4989038;28;20037;-73
2022/08/02 11:28:20;;;;;;;7.25;2.70;;;;;;;;;;5010381;28;20048;-72
2022/08/02 11:30:55;;;;;;;7.78;2.50;;;;;;;;;;5007923;28;20022;-72
2022/08/02 11:33:29;;;;;;;5.07;2.65;;;;;;;;;;5001354;28;20055;-73
2022/08/02 11:36:00;;;;;;;3.58;2.85;;;;;;;;;;5004649;28;20022;-73
2022/08/02 11:38:26;;;;;;;4.20;2.85;;;;;;;;;;4998825;28;20022;-73
2022/08/02 11:40:52;;;;;;;5.20;2.60;;;;;;;;;;5002060;28;20022;-73
2022/08/02 11:43:20;;;;;;;3.08;2.42;;;;;;;;;;4999053;28;20672;-73
2022/08/02 11:45:46;;;;;;;4.22;2.95;;;;;;;;;;5001925;28;20041;-73
2022/08/02 11:48:12;;;;;;;5.32;2.85;;;;;;;;;;4996736;28;20026;-73
2022/08/02 11:50:39;;;;;;;3.72;2.88;;;;;;;;;;5002939;28;20256;-73
2022/08/02 11:53:15;;;;;;;3.15;2.75;;;;;;;;;;5004753;28;20030;-73
2022/08/02 11:55:41;;;;;;;4.03;3.63;;;;;;;;;;5005604;28;20061;-73
2022/08/02 11:58:10;;;;;;;3.95;3.40;;;;;;;;;;5007045;28;20121;-73
2022/08/02 12:00:36;;;;;;;4.93;3.03;;;;;;;;;;5003673;28;20618;-73
2022/08/02 12:03:02;;;;;;;5.22;3.15;;;;;;;;;;5008824;28;20026;-73
2022/08/02 12:05:30;;;;;;;4.82;3.00;;;;;;;;;;5008597;28;20037;-73
2022/08/02 12:07:56;;;;;;;5.03;3.17;;;;;;;;;;5000238;28;20030;-73
2022/08/02 12:10:24;;;;;;;5.05;3.20;;;;;;;;;;5007966;28;20033;-73
2022/08/02 12:12:55;;;;;;;5.40;3.00;;;;;;;;;;5002985;28;20397;-73
2022/08/02 12:15:21;;;;;;;;;;;;;;;;;;5005353;28;20385;-73
2022/08/02 12:20:36;;;;;;;4.57;3.33;;;;;;;;;;5008620;28;20096;-73
2022/08/02 12:23:03;;;;;;;6.80;3.13;;;;;;;;;;5010337;28;20018;-73
2022/08/02 12:25:33;;;;;;;3.33;2.60;;;;;;;;;;5008070;28;20255;-73
2022/08/02 12:28:16;;;;;;;2.40;2.20;;;;;;;;;;5008340;28;20490;-73
2022/08/02 12:30:55;;;;;;;4.20;2.78;;;;;;;;;;5006145;28;20053;-73
2022/08/02 12:33:22;;;;;;;2.60;2.20;;;;;;;;;;4995963;28;20030;-73
2022/08/02 12:35:48;;;;;;;3.00;2.70;;;;;;;;;;5004378;28;20513;-73
2022/08/02 12:38:15;;;;;;;2.47;2.20;;;;;;;;;;5007856;28;20500;-73
2022/08/02 12:40:41;;;;;;;5.38;2.40;;;;;;;;;;5005111;28;20105;-73
2022/08/02 12:43:08;;;;;;;3.58;2.30;;;;;;;;;;5005619;28;20028;-73
2022/08/02 12:45:47;;;;;;;2.95;2.42;;;;;;;;;;5003133;28;20370;-72
2022/08/02 12:48:13;;;;;;;3.70;2.30;;;;;;;;;;4992790;28;20546;-74
2022/08/02 12:50:40;;;;;;;4.68;2.38;;;;;;;;;;5001005;28;20756;-72
2022/08/02 12:53:14;;;;;;;5.20;2.40;;;;;;;;;;5007694;28;20025;-73
2022/08/02 12:55:54;;;;;;;5.43;2.10;;;;;;;;;;5005736;28;20021;-72
2022/08/02 12:58:20;;;;;;;2.20;1.90;;;;;;;;;;5000432;28;20192;-72
2022/08/02 13:00:54;;;;;;;4.43;2.40;;;;;;;;;;5007907;28;20069;-72
2022/08/02 13:03:20;;;;;;;4.28;2.10;;;;;;;;;;5006450;28;20049;-73
2022/08/02 13:05:47;;;;;;;4.97;2.20;;;;;;;;;;5001867;28;20025;-73
2022/08/02 13:08:14;;;;;;;3.60;2.30;;;;;;;;;;5000803;28;20029;-73
2022/08/02 13:10:40;;;;;;;2.58;2.30;;;;;;;;;;5002516;28;20026;-72
2022/08/02 13:13:06;;;;;;;3.53;2.28;;;;;;;;;;5005344;28;20048;-73
2022/08/02 13:15:33;;;;;;;2.55;2.00;;;;;;;;;;4999369;28;20033;-73
2022/08/02 13:18:00;;;;;;;5.47;2.22;;;;;;;;;;5003864;28;20430;-73
2022/08/02 13:20:26;;;;;;;3.05;2.22;;;;;;;;;;5004617;28;20045;-73
2022/08/02 13:22:53;;;;;;;3.28;2.35;;;;;;;;;;5001378;28;20109;-73
2022/08/02 13:25:22;;;;;;;3.28;2.10;;;;;;;;;;4998173;28;20049;-73
2022/08/02 13:27:51;;;;;;;3.20;2.60;;;;;;;;;;4999942;28;20050;-73
2022/08/02 13:30:19;;;;;;;2.75;2.20;;;;;;;;;;5001307;28;20540;-73
2022/08/02 13:32:45;;;;;;;3.33;2.10;;;;;;;;;;5001595;28;20042;-72
2022/08/02 13:35:11;;;;;;;3.95;2.20;;;;;;;;;;5000424;28;20061;-73
2022/08/02 13:37:40;;;;;;;2.40;2.20;;;;;;;;;;5002144;28;20037;-72
2022/08/02 13:40:07;;;;;;;3.05;2.13;;;;;;;;;;4997322;28;20187;-73
2022/08/02 13:42:33;;;;;;;2.20;2.00;;;;;;;;;;5001228;28;20034;-73
2022/08/02 13:44:59;;;;;;;3.35;2.30;;;;;;;;;;5002343;28;20532;-73
2022/08/02 13:47:25;;;;;;;2.55;2.00;;;;;;;;;;5005878;28;20049;-73
2022/08/02 13:49:51;;;;;;;2.50;2.30;;;;;;;;;;5006957;28;20048;-73
2022/08/02 13:52:17;;;;;;;2.67;2.15;;;;;;;;;;5002142;28;20382;-73
2022/08/02 13:54:44;;;;;;;3.20;2.45;;;;;;;;;;5004329;28;20162;-73
2022/08/02 13:57:10;;;;;;;3.72;2.10;;;;;;;;;;5000092;28;20417;-73
2022/08/02 13:59:36;;;;;;;2.70;2.20;;;;;;;;;;5002141;28;20030;-72
2022/08/02 14:02:02;;;;;;;3.33;2.40;;;;;;;;;;5002981;28;20030;-73
2022/08/02 14:04:29;;;;;;;2.47;2.20;;;;;;;;;;4999832;28;20037;-73
2022/08/02 14:06:56;;;;;;;2.15;2.00;;;;;;;;;;4997830;28;20071;-73
2022/08/02 14:09:23;;;;;;;2.55;2.33;;;;;;;;;;5008255;28;20053;-72
2022/08/02 14:11:49;;;;;;;3.92;2.50;;;;;;;;;;5002767;28;20036;-73
2022/08/02 14:14:15;;;;;;;2.58;2.10;;;;;;;;;;4998492;28;20029;-73
2022/08/02 14:16:41;;;;;;;2.33;2.10;;;;;;;;;;5009273;28;20033;-73
2022/08/02 14:19:08;;;;;;;2.70;2.28;;;;;;;;;;5005334;28;20068;-73
2022/08/02 14:21:34;;;;;;;2.40;2.17;;;;;;;;;;5005649;28;20117;-73
2022/08/02 14:24:01;;;;;;;2.25;2.05;;;;;;;;;;5003078;28;20617;-73
2022/08/02 14:26:27;;;;;;;3.00;2.40;;;;;;;;;;4996414;28;20066;-73
2022/08/02 14:28:53;;;;;;;2.38;2.17;;;;;;;;;;4996451;28;20064;-73
2022/08/02 14:31:19;;;;;;;3.17;2.22;;;;;;;;;;4997714;28;20056;-73
2022/08/02 14:33:45;;;;;;;2.72;1.98;;;;;;;;;;5000507;28;20087;-73
2022/08/02 14:36:11;;;;;;;3.38;2.72;;;;;;;;;;5000790;28;20018;-72
2022/08/02 14:38:38;;;;;;;2.20;2.00;;;;;;;;;;4998857;28;20041;-73
2022/08/02 14:41:04;;;;;;;4.30;2.28;;;;;;;;;;4997645;28;20029;-73
2022/08/02 14:46:15;;;;;;;2.40;2.17;;;;;;;;;;4999542;28;20839;-73
2022/08/02 14:48:42;;;;;;;8.40;2.65;;;;;;;;;;5006771;28;20060;-73
2022/08/02 14:51:08;;;;;;;8.20;2.63;;;;;;;;;;5002940;28;20152;-73
2022/08/02 14:53:34;;;;;;;4.75;2.13;;;;;;;;;;5003225;28;20761;-74